createdAt,value
2023-04-26T00:02:22.293Z,68.04
2023-04-26T00:06:39.926Z,66.89
2023-04-26T00:10:57.782Z,65.83
2023-04-26T00:15:15.589Z,65.32
2023-04-26T00:19:33.453Z,65.23
2023-04-26T00:23:52.112Z,64.86
2023-04-26T00:28:09.679Z,64.00
2023-04-26T00:32:27.587Z,64.80
2023-04-26T00:36:45.201Z,63.78
2023-04-26T00:41:03.026Z,64.17
2023-04-26T00:45:20.814Z,63.57
2023-04-26T00:49:38.572Z,63.59
2023-04-26T00:53:57.605Z,64.17
2023-04-26T00:58:15.494Z,63.48
2023-04-26T01:02:33.464Z,64.12
2023-04-26T01:06:51.518Z,64.80
2023-04-26T01:11:09.037Z,65.29
2023-04-26T01:15:28.707Z,66.26
2023-04-26T01:19:49.992Z,66.77
2023-04-26T01:24:08.527Z,67.99
2023-04-26T01:28:26.022Z,68.68
2023-04-26T01:32:44.019Z,69.77
2023-04-26T01:37:01.924Z,69.55
2023-04-26T01:41:19.554Z,70.48
2023-04-26T01:45:37.066Z,71.04
2023-04-26T01:49:54.289Z,71.72
2023-04-26T01:54:12.150Z,73.02
2023-04-26T01:58:30.557Z,73.39
2023-04-26T02:02:48.576Z,74.13
2023-04-26T02:07:06.764Z,75.51
2023-04-26T02:11:24.982Z,76.42
2023-04-26T02:15:47.404Z,76.90
2023-04-26T02:20:05.503Z,78.10
2023-04-26T02:24:23.489Z,78.64
2023-04-26T02:28:42.244Z,79.55
2023-04-26T02:33:00.002Z,79.33
2023-04-26T02:37:17.727Z,80.89
2023-04-26T02:41:35.650Z,80.79
2023-04-26T02:45:53.524Z,80.53
2023-04-26T02:50:11.552Z,81.53
2023-04-26T02:54:29.186Z,81.93
2023-04-26T02:58:47.479Z,81.88
2023-04-26T03:03:05.286Z,81.85
2023-04-26T03:07:23.342Z,82.31
2023-04-26T03:11:40.866Z,82.19
2023-04-26T03:15:58.634Z,82.18
2023-04-26T03:20:16.241Z,82.25
2023-04-26T03:24:34.285Z,82.11
2023-04-26T03:28:52.073Z,82.34
2023-04-26T03:33:10.590Z,83.01
2023-04-26T03:37:28.136Z,83.06
2023-04-26T03:41:46.572Z,83.30
2023-04-26T03:46:05.157Z,83.96
2023-04-26T03:50:23.181Z,84.05
2023-04-26T03:54:40.865Z,84.00
2023-04-26T03:58:58.562Z,84.10
2023-04-26T04:03:16.401Z,83.50
2023-04-26T04:07:35.037Z,83.12
2023-04-26T04:11:52.645Z,82.90
2023-04-26T04:16:10.719Z,82.70
2023-04-26T04:20:28.223Z,81.87
2023-04-26T04:24:45.932Z,81.06
2023-04-26T04:29:09.438Z,80.62
2023-04-26T04:33:28.848Z,79.87
2023-04-26T04:37:46.617Z,79.03
2023-04-26T04:42:04.291Z,78.46
2023-04-26T04:46:22.201Z,76.45
2023-04-26T04:50:40.131Z,73.80
2023-04-26T04:54:57.792Z,71.90
2023-04-26T04:59:15.454Z,71.46
2023-04-26T05:03:34.591Z,70.48
2023-04-26T05:07:52.237Z,70.40
2023-04-26T05:12:10.332Z,70.19
2023-04-26T05:16:28.019Z,70.13
2023-04-26T05:20:46.006Z,70.40
2023-04-26T05:25:05.653Z,68.84
2023-04-26T05:29:23.375Z,67.93
2023-04-26T05:33:41.402Z,68.00
2023-04-26T05:37:59.077Z,67.52
2023-04-26T05:42:18.023Z,66.91
2023-04-26T05:46:36.017Z,66.20
2023-04-26T05:50:53.880Z,65.66
2023-04-26T05:55:11.691Z,65.94
2023-04-26T05:59:33.055Z,64.32
2023-04-26T06:03:51.868Z,64.12
2023-04-26T06:08:11.490Z,63.38
2023-04-26T06:12:29.474Z,62.24
2023-04-26T06:16:47.410Z,61.35
2023-04-26T06:21:06.375Z,63.08
2023-04-26T06:25:23.932Z,60.52
2023-04-26T06:29:42.108Z,59.22
2023-04-26T06:33:59.627Z,62.78
2023-04-26T06:38:17.421Z,63.02
2023-04-26T06:42:35.158Z,61.71
2023-04-26T06:46:56.328Z,60.11
2023-04-26T06:51:14.293Z,59.15
2023-04-26T06:55:32.571Z,59.08
2023-04-26T06:59:51.770Z,57.99
2023-04-26T07:04:10.915Z,58.07
2023-04-26T07:08:28.741Z,55.76
2023-04-26T07:12:46.646Z,56.54
2023-04-26T07:17:04.147Z,55.68
2023-04-26T07:21:21.714Z,54.31
2023-04-26T07:25:40.366Z,52.81
2023-04-26T07:29:57.910Z,52.96
2023-04-26T07:34:15.847Z,52.98
2023-04-26T07:38:33.340Z,52.45
2023-04-26T07:42:51.142Z,52.88
2023-04-26T07:47:14.580Z,51.84
2023-04-26T07:51:32.561Z,49.85
2023-04-26T07:55:52.961Z,47.80
2023-04-26T08:00:12.665Z,51.56
2023-04-26T08:04:34.327Z,50.58
2023-04-26T08:08:54.068Z,50.28
2023-04-26T08:13:11.649Z,50.54
2023-04-26T08:17:28.832Z,49.07
2023-04-26T08:21:46.430Z,49.83
2023-04-26T08:26:04.617Z,49.47
2023-04-26T08:30:22.882Z,49.58
2023-04-26T08:34:40.553Z,46.45
2023-04-26T08:38:58.431Z,48.53
2023-04-26T08:43:19.615Z,50.65
2023-04-26T08:47:45.327Z,51.40
2023-04-26T08:52:04.877Z,46.32
2023-04-26T08:56:24.769Z,44.71
2023-04-26T09:00:48.715Z,46.74
2023-04-26T09:05:08.016Z,49.67
2023-04-26T09:09:29.679Z,48.80
2023-04-26T09:13:47.601Z,44.48
2023-04-26T09:18:18.797Z,42.66
2023-04-26T09:22:38.011Z,50.90
2023-04-26T09:27:05.266Z,53.27
2023-04-26T09:31:50.546Z,51.78
2023-04-26T09:36:14.085Z,46.77
2023-04-26T09:40:34.782Z,44.65
2023-04-26T09:44:54.087Z,43.02
2023-04-26T09:49:11.762Z,44.05
2023-04-26T09:53:38.196Z,50.43
2023-04-26T09:58:00.665Z,53.63
2023-04-26T10:02:22.943Z,52.40
2023-04-26T10:06:41.026Z,43.12
2023-04-26T10:11:00.142Z,36.70
2023-04-26T10:15:19.050Z,43.16
2023-04-26T10:19:44.282Z,45.11
2023-04-26T10:24:01.963Z,46.48
2023-04-26T10:28:45.473Z,48.39
2023-04-26T10:33:08.594Z,45.41
2023-04-26T10:37:26.823Z,37.63
2023-04-26T10:41:44.368Z,36.79
2023-04-26T10:46:43.006Z,44.19
2023-04-26T10:51:08.687Z,44.76
2023-04-26T10:55:43.187Z,42.17
2023-04-26T11:00:17.182Z,35.36
2023-04-26T11:04:55.274Z,34.23
2023-04-26T11:09:42.085Z,34.15
2023-04-26T11:14:02.366Z,40.99
2023-04-26T11:18:22.465Z,43.69
2023-04-26T11:22:42.037Z,40.49
2023-04-26T11:27:00.135Z,39.77
2023-04-26T11:31:19.117Z,29.98
2023-04-26T11:35:37.263Z,32.85
2023-04-26T11:39:54.951Z,39.62
2023-04-26T11:44:13.106Z,39.50
2023-04-26T11:48:32.259Z,37.78
2023-04-26T11:52:50.012Z,30.18
2023-04-26T11:57:17.170Z,29.12
2023-04-26T12:01:36.475Z,25.85
2023-04-26T12:05:57.197Z,28.50
2023-04-26T12:10:20.394Z,32.64
2023-04-26T12:14:40.074Z,29.53
2023-04-26T12:18:59.626Z,28.71
2023-04-26T12:23:18.319Z,33.79
2023-04-26T12:27:36.489Z,34.24
2023-04-26T12:31:53.569Z,37.13
2023-04-26T12:36:13.040Z,39.47
2023-04-26T12:40:31.350Z,40.66
2023-04-26T12:44:49.154Z,39.97
2023-04-26T12:49:07.033Z,35.27
2023-04-26T12:53:24.169Z,27.70
2023-04-26T12:57:45.067Z,22.17
2023-04-26T13:02:03.929Z,25.21
2023-04-26T13:06:21.825Z,19.44
2023-04-26T13:10:39.528Z,28.81
2023-04-26T13:14:57.182Z,30.80
2023-04-26T13:19:14.976Z,34.87
2023-04-26T13:23:32.566Z,35.23
2023-04-26T13:27:52.156Z,33.42
2023-04-26T13:32:09.689Z,31.55
2023-04-26T13:36:28.341Z,25.18
2023-04-26T13:40:46.724Z,27.44
2023-04-26T13:45:09.504Z,31.91
2023-04-26T13:49:27.584Z,35.45
2023-04-26T13:53:45.433Z,36.91
2023-04-26T13:58:02.982Z,38.23
2023-04-26T14:02:22.041Z,38.55
2023-04-26T14:06:40.115Z,36.65
2023-04-26T14:10:57.866Z,36.46
2023-04-26T14:15:15.645Z,33.34
2023-04-26T14:19:33.207Z,35.37
2023-04-26T14:23:52.527Z,37.45
2023-04-26T14:28:10.139Z,38.96
2023-04-26T14:32:27.799Z,39.79
2023-04-26T14:36:45.476Z,40.96
2023-04-26T14:41:03.412Z,39.43
2023-04-26T14:45:23.696Z,25.90
2023-04-26T14:49:45.534Z,17.74
2023-04-26T14:54:03.176Z,20.48
2023-04-26T14:58:22.271Z,31.17
2023-04-26T15:02:40.191Z,37.58
2023-04-26T15:06:58.151Z,35.93
2023-04-26T15:11:15.905Z,36.42
2023-04-26T15:15:34.302Z,39.66
2023-04-26T15:19:51.951Z,42.31
2023-04-26T15:24:09.647Z,42.19
2023-04-26T15:28:27.467Z,44.41
2023-04-26T15:32:50.232Z,45.48
2023-04-26T15:37:08.044Z,44.72
2023-04-26T15:41:26.334Z,45.58
2023-04-26T15:45:47.267Z,45.71
2023-04-26T15:50:05.949Z,45.92
2023-04-26T15:54:25.224Z,45.28
2023-04-26T15:58:47.279Z,46.34
2023-04-26T16:03:05.258Z,46.43
2023-04-26T16:07:22.793Z,45.12
2023-04-26T16:11:40.948Z,45.44
2023-04-26T16:16:00.656Z,44.81
2023-04-26T16:20:18.392Z,44.51
2023-04-26T16:24:36.082Z,42.56
2023-04-26T16:29:01.898Z,36.27
2023-04-26T16:33:22.068Z,32.15
2023-04-26T16:37:42.152Z,39.28
2023-04-26T16:41:59.825Z,40.19
2023-04-26T16:46:17.541Z,40.23
2023-04-26T16:50:35.795Z,43.82
2023-04-26T16:54:56.134Z,46.80
2023-04-26T16:59:14.055Z,48.42
2023-04-26T17:03:32.176Z,50.33
2023-04-26T17:07:50.121Z,51.61
2023-04-26T17:12:08.404Z,52.17
2023-04-26T17:16:26.301Z,53.40
2023-04-26T17:20:44.136Z,52.22
2023-04-26T17:25:01.707Z,52.65
2023-04-26T17:29:22.685Z,51.68
2023-04-26T17:33:40.400Z,53.26
2023-04-26T17:37:57.951Z,54.74
2023-04-26T17:42:15.792Z,56.16
2023-04-26T17:46:33.527Z,57.20
2023-04-26T17:50:53.140Z,58.60
2023-04-26T17:55:11.054Z,60.15
2023-04-26T17:59:31.351Z,61.59
2023-04-26T18:03:49.785Z,65.01
2023-04-26T18:08:07.645Z,67.12
2023-04-26T18:12:25.709Z,68.67
2023-04-26T18:16:43.668Z,69.72
2023-04-26T18:21:01.673Z,70.97
2023-04-26T18:25:22.746Z,71.96
2023-04-26T18:29:41.050Z,72.80
2023-04-26T18:33:58.753Z,73.20
2023-04-26T18:38:17.319Z,73.66
2023-04-26T18:42:34.960Z,74.07
2023-04-26T18:46:55.994Z,74.55
2023-04-26T18:51:13.980Z,75.21
2023-04-26T18:55:31.783Z,75.62
2023-04-26T18:59:49.747Z,75.73
2023-04-26T19:04:09.287Z,76.25
2023-04-26T19:08:27.080Z,76.73
2023-04-26T19:12:45.073Z,77.07
2023-04-26T19:17:02.868Z,77.78
2023-04-26T19:21:20.411Z,78.39
2023-04-26T19:25:38.336Z,78.97
2023-04-26T19:29:55.894Z,79.07
2023-04-26T19:34:13.981Z,79.47
2023-04-26T19:38:31.733Z,79.84
2023-04-26T19:42:49.668Z,80.12
2023-04-26T19:47:07.406Z,80.43
2023-04-26T19:51:26.034Z,80.62
2023-04-26T19:55:43.696Z,81.14
2023-04-26T20:00:01.385Z,81.36
2023-04-26T20:04:22.079Z,81.53
2023-04-26T20:08:42.555Z,81.74
2023-04-26T20:13:01.152Z,81.96
2023-04-26T20:17:18.659Z,82.16
2023-04-26T20:21:39.054Z,82.16
2023-04-26T20:25:56.896Z,82.20
2023-04-26T20:30:17.423Z,82.54
2023-04-26T20:34:35.150Z,82.60
2023-04-26T20:38:53.129Z,82.73
2023-04-26T20:43:15.141Z,82.66
2023-04-26T20:47:33.332Z,82.69
2023-04-26T20:51:53.751Z,83.03
2023-04-26T20:56:11.488Z,83.27
2023-04-26T21:00:29.554Z,83.50
2023-04-26T21:04:47.381Z,83.47
2023-04-26T21:09:07.885Z,83.45
2023-04-26T21:13:25.712Z,83.26
2023-04-26T21:17:43.412Z,83.18
2023-04-26T21:22:04.144Z,82.92
2023-04-26T21:26:21.718Z,82.95
2023-04-26T21:30:39.677Z,83.12
2023-04-26T21:34:57.436Z,83.17
2023-04-26T21:39:15.132Z,83.01
2023-04-26T21:43:35.935Z,83.23
2023-04-26T21:47:54.235Z,83.35
2023-04-26T21:52:11.886Z,83.56
2023-04-26T21:56:30.054Z,83.68
2023-04-26T22:00:48.140Z,83.75
2023-04-26T22:05:07.292Z,83.81
2023-04-26T22:09:24.964Z,84.09
2023-04-26T22:13:42.636Z,84.31
2023-04-26T22:18:00.432Z,84.49
2023-04-26T22:22:18.119Z,84.56
2023-04-26T22:26:36.496Z,84.87
2023-04-26T22:30:53.945Z,84.84
2023-04-26T22:35:12.111Z,84.64
2023-04-26T22:39:29.629Z,84.48
2023-04-26T22:43:47.448Z,84.38
2023-04-26T22:48:05.073Z,84.58
2023-04-26T22:52:31.651Z,84.67
2023-04-26T22:56:49.542Z,84.25
2023-04-26T23:01:07.771Z,83.95
2023-04-26T23:05:25.463Z,83.87
2023-04-26T23:09:43.494Z,83.67
2023-04-26T23:14:02.186Z,83.24
2023-04-26T23:18:20.250Z,82.86
2023-04-26T23:22:42.865Z,82.69
2023-04-26T23:27:00.430Z,83.02
2023-04-26T23:31:18.314Z,83.04
2023-04-26T23:35:41.538Z,82.84
2023-04-26T23:39:59.255Z,82.97
2023-04-26T23:44:17.132Z,82.88
2023-04-26T23:48:34.985Z,82.70
2023-04-26T23:52:52.625Z,82.62
2023-04-26T23:57:10.577Z,82.64
